Latest Coastal Weather Observations for Alva Beach

IDQ60701

Issued at 6:35 am EST Tuesday 25 November 2014 (issued every 10 minutes, with the page automatically refreshed every 10 minutes)

About coastal observations | Map of coastal stations | Coastal observations for QLD | Marine services | Other Formats
Station Details ID: 033295 Name: ALVA BEACH Lat: -19.46 Lon: 147.48 Height: 7.5 m
Data from the previous 72 hours. | See also: Recent months at Alva Beach
Date/Time
EST
Temp

°C
Wind Pressure Rain
since 9am
mm
Weather Cloud Vis
km
Sea
Height
m
Swell
Dir
 
Speed
knots
Gust
knots
hPa Trend Height
m
Period
s
Dir
25/06:30am 25.3 ENE 9 12 1012.5 - 0.0 - - - - - - -
25/06:00am 25.1 ENE 9 11 1012.3 - 0.0 - - - - - - -
25/05:30am 25.0 ENE 10 13 1012.0 - 0.0 - - - - - - -
25/05:00am 24.7 ENE 10 13 1011.7 - 0.0 - - - - - - -
25/04:30am 25.0 ENE 11 14 1011.5 - 0.0 - - - - - - -
25/04:00am 24.8 ENE 12 15 1011.3 - 0.0 - - - - - - -
25/03:30am 25.0 ENE 11 14 1011.4 - 0.0 - - - - - - -
25/03:00am 25.0 ENE 12 15 1011.3 - 0.0 - - - - - - -
25/02:30am 25.1 ENE 12 14 1011.4 - 0.0 - - - - - - -
25/02:00am 25.0 ENE 10 12 1012.0 - 0.0 - - - - - - -
25/01:30am 25.1 ENE 9 13 1012.3 - 0.0 - - - - - - -
25/01:00am 25.5 ENE 11 13 1012.5 - 0.0 - - - - - - -
25/12:30am 25.5 ENE 11 13 1013.1 - 0.0 - - - - - - -
25/12:00am 25.6 ENE 13 16 1013.4 - 0.0 - - - - - - -
 
Date/Time
EST
Temp

°C
Wind Pressure Rain
since 9am
mm
Weather Cloud Vis
km
Sea
Height
m
Swell
Dir
 
Speed
knots
Gust
knots
hPa Trend Height
m
Period
s
Dir
24/11:30pm 25.5 ENE 11 15 1013.5 - 0.0 - - - - - - -
24/11:00pm 25.5 ENE 12 16 1013.8 - 0.0 - - - - - - -
24/10:30pm 25.6 ENE 13 16 1013.8 - 0.0 - - - - - - -
24/10:00pm 25.6 ENE 13 15 1013.7 - 0.0 - - - - - - -
24/09:30pm 25.7 ENE 14 16 1013.6 - 0.0 - - - - - - -
24/09:00pm 25.8 ENE 14 16 1013.5 - 0.0 - - - - - - -
24/08:30pm 25.9 ENE 15 17 1013.1 - 0.0 - - - - - - -
24/08:00pm 25.8 ENE 16 19 1012.6 - 0.0 - - - - - - -
24/07:30pm 25.9 ENE 16 19 1012.3 - 0.0 - - - - - - -
24/07:00pm 25.9 ENE 15 18 1012.2 - 0.0 - - - - - - -
24/06:30pm 26.3 ENE 15 17 1011.9 - 0.0 - - - - - - -
24/06:00pm 26.4 ENE 15 17 1011.6 - 0.0 - - - - - - -
24/05:30pm 26.8 ENE 15 17 1011.3 - 0.0 - - - - - - -
24/05:00pm 27.2 ENE 14 16 1011.0 - 0.0 - - - - - - -
24/04:30pm 27.2 ENE 13 16 1011.1 - 0.0 - - - - - - -
24/04:00pm 27.6 ENE 14 17 1011.0 - 0.0 - - - - - - -
24/03:30pm 28.1 ENE 13 16 1011.2 - 0.0 - - - - - - -
24/03:00pm 27.9 ENE 14 17 1011.5 - 0.0 - - - - - - -
24/02:30pm 28.3 ENE 14 16 1011.9 - 0.0 - - - - - - -
24/02:00pm 28.3 ENE 15 17 1012.2 - 0.0 - - - - - - -
24/01:30pm 28.2 ENE 13 17 1012.5 - 0.0 - - - - - - -
24/01:00pm 28.4 ENE 13 18 1012.7 - 0.0 - - - - - - -
24/12:30pm 28.5 E 12 16 1013.0 - 0.0 - - - - - - -
24/12:00pm 28.7 E 11 14 1013.4 - 0.0 - - - - - - -
24/11:30am 28.2 ENE 11 14 1013.8 - 0.0 - - - - - - -
24/11:00am 28.6 E 10 14 1014.1 - 0.0 - - - - - - -
24/10:30am 28.5 E 10 13 1014.3 - 0.0 - - - - - - -
24/10:00am 28.0 E 11 15 1014.5 - 0.0 - - - - - - -
24/09:30am 27.2 ENE 13 17 1014.5 - 0.0 - - - - - - -
24/09:00am 28.3 E 10 14 1014.5 - 0.0 - - - - - - -
24/08:30am 27.6 E 10 13 1014.5 - 0.0 - - - - - - -
24/08:00am 27.3 E 9 13 1014.3 - 0.0 - - - - - - -
24/07:30am 27.1 E 11 15 1014.0 - 0.0 - - - - - - -
24/07:00am 26.1 ENE 12 14 1013.9 - 0.0 - - - - - - -
24/06:30am 26.0 ENE 11 15 1013.5 - 0.0 - - - - - - -
24/06:00am 25.5 ENE 12 15 1013.2 - 0.0 - - - - - - -
24/05:30am 25.2 ENE 12 15 1012.9 - 0.0 - - - - - - -
24/05:00am 25.1 ENE 13 16 1012.8 - 0.0 - - - - - - -
24/04:30am 25.1 ENE 13 15 1012.8 - 0.0 - - - - - - -
24/04:00am 25.0 ENE 13 15 1012.7 - 0.0 - - - - - - -
24/03:30am 25.1 ENE 12 15 1012.9 - 0.0 - - - - - - -
24/03:00am 25.3 ENE 11 15 1012.9 - 0.0 - - - - - - -
24/02:30am 25.1 E 10 13 1013.0 - 0.0 - - - - - - -
24/02:00am 25.3 ENE 11 15 1013.1 - 0.0 - - - - - - -
24/01:30am 25.3 ENE 13 16 1013.4 - 0.0 - - - - - - -
24/01:00am 25.4 ENE 12 16 1013.7 - 0.0 - - - - - - -
24/12:30am 25.5 E 12 15 1014.0 - 0.0 - - - - - - -
24/12:00am 25.6 E 12 16 1014.4 - 0.0 - - - - - - -
 
Date/Time
EST
Temp

°C
Wind Pressure Rain
since 9am
mm
Weather Cloud Vis
km
Sea
Height
m
Swell
Dir
 
Speed
knots
Gust
knots
hPa Trend Height
m
Period
s
Dir
23/11:30pm 25.6 ENE 13 17 1014.7 - 0.0 - - - - - - -
23/11:00pm 25.7 ENE 15 18 1014.8 - 0.0 - - - - - - -
23/10:30pm 25.7 ENE 14 18 1014.8 - 0.0 - - - - - - -
23/10:00pm 26.0 ENE 14 18 1014.7 - 0.0 - - - - - - -
23/09:30pm 26.0 ENE 15 18 1014.5 - 0.0 - - - - - - -
23/09:00pm 25.8 ENE 14 18 1014.3 - 0.0 - - - - - - -
23/08:30pm 25.8 ENE 14 18 1013.9 - 0.0 - - - - - - -
23/08:00pm 25.8 ENE 15 17 1013.4 - 0.0 - - - - - - -
23/07:30pm 26.0 ENE 14 17 1013.1 - 0.0 - - - - - - -
23/07:00pm 25.8 ENE 13 17 1012.9 - 0.0 - - - - - - -
23/06:30pm 26.0 ENE 14 17 1012.6 - 0.0 - - - - - - -
23/06:00pm 26.2 ENE 15 17 1012.5 - 0.0 - - - - - - -
23/05:30pm 26.7 ENE 15 17 1012.4 - 0.0 - - - - - - -
23/05:00pm 27.2 ENE 15 17 1012.3 - 0.0 - - - - - - -
23/04:30pm 27.3 ENE 15 18 1012.2 - 0.0 - - - - - - -
23/04:00pm 27.9 ENE 15 17 1012.4 - 0.0 - - - - - - -
23/03:30pm 27.5 ENE 15 17 1012.5 - 0.0 - - - - - - -
23/03:00pm 27.9 ENE 14 17 1012.9 - 0.0 - - - - - - -
23/02:30pm 28.5 ENE 12 16 1013.1 - 0.0 - - - - - - -
23/02:00pm 28.1 ENE 14 17 1013.4 - 0.0 - - - - - - -
23/01:30pm 28.3 ENE 14 17 1013.7 - 0.0 - - - - - - -
23/01:00pm 28.5 ENE 12 15 1014.1 - 0.0 - - - - - - -
23/12:30pm 28.4 E 11 14 1014.5 - 0.0 - - - - - - -
23/12:00pm 28.8 E 10 15 1014.7 - 0.0 - - - - - - -
23/11:30am 28.3 ENE 11 15 1015.2 - 0.0 - - - - - - -
23/11:00am 28.3 ENE 10 13 1015.4 - 0.0 - - - - - - -
23/10:30am 28.8 E 10 14 1015.7 - 0.0 - - - - - - -
23/10:00am 28.4 E 9 12 1015.6 - 0.0 - - - - - - -
23/09:30am 28.2 E 9 11 1015.8 - 0.0 - - - - - - -
23/09:00am 27.8 E 9 12 1015.6 - 0.0 - - - - - - -
23/08:30am 27.5 E 8 11 1015.5 - 0.0 - - - - - - -
23/08:00am 26.9 E 8 11 1015.4 - 0.0 - - - - - - -
23/07:30am 27.1 ENE 10 13 1015.1 - 0.0 - - - - - - -
23/07:00am 26.3 E 10 13 1014.7 - 0.0 - - - - - - -
23/06:30am 25.8 ENE 8 11 1014.1 - 0.0 - - - - - - -
23/06:00am 25.4 E 7 10 1013.9 - 0.0 - - - - - - -
23/05:30am 25.0 E 9 11 1013.5 - 0.0 - - - - - - -
23/05:00am 25.1 ENE 10 12 1013.3 - 0.0 - - - - - - -
23/04:30am 24.8 ENE 8 11 1013.2 - 0.0 - - - - - - -
23/04:00am 24.9 ENE 9 11 1012.8 - 0.0 - - - - - - -
23/03:30am 25.1 NE 9 11 1012.6 - 0.0 - - - - - - -
23/03:00am 25.2 ENE 9 12 1012.7 - 0.0 - - - - - - -
23/02:30am 25.0 ENE 10 12 1012.9 - 0.0 - - - - - - -
23/02:00am 25.1 ENE 11 13 1013.0 - 0.0 - - - - - - -
23/01:30am 25.4 NE 12 14 1013.2 - 0.0 - - - - - - -
23/01:00am 25.3 NE 12 15 1013.6 - 0.0 - - - - - - -
23/12:30am 25.4 NE 10 12 1014.0 - 0.0 - - - - - - -
23/12:00am 25.6 ENE 12 14 1014.3 - 0.0 - - - - - - -
 
Date/Time
EST
Temp

°C
Wind Pressure Rain
since 9am
mm
Weather Cloud Vis
km
Sea
Height
m
Swell
Dir
 
Speed
knots
Gust
knots
hPa Trend Height
m
Period
s
Dir
22/11:30pm 25.5 ENE 13 16 1014.4 - 0.0 - - - - - - -
22/11:00pm 25.8 NE 11 14 1014.5 - 0.0 - - - - - - -
22/10:30pm 25.9 NE 11 14 1014.6 - 0.0 - - - - - - -
22/10:00pm 25.9 NE 11 13 1014.4 - 0.0 - - - - - - -
22/09:30pm 25.9 NE 11 13 1014.2 - 0.0 - - - - - - -
22/09:00pm 26.0 NE 11 13 1013.8 - 0.0 - - - - - - -
22/08:30pm 25.9 NE 12 15 1013.6 - 0.0 - - - - - - -
22/08:00pm 26.0 NE 11 13 1013.1 - 0.0 - - - - - - -
22/07:30pm 25.8 NE 12 15 1012.8 - 0.0 - - - - - - -
22/07:00pm 25.8 NNE 12 14 1012.5 - 0.0 - - - - - - -
22/06:30pm 26.0 NNE 12 14 1012.2 - 0.0 - - - - - - -
22/06:00pm 26.3 NE 12 16 1012.1 - 0.0 - - - - - - -
22/05:30pm 26.4 NNE 13 15 1011.7 - 0.0 - - - - - - -
22/05:00pm 26.7 NE 12 15 1011.7 - 0.0 - - - - - - -
22/04:30pm 27.1 NE 11 14 1011.6 - 0.0 - - - - - - -
22/04:00pm 28.1 NE 10 12 1011.7 - 0.0 - - - - - - -
22/03:30pm 28.1 NE 11 13 1012.0 - 0.0 - - - - - - -
22/03:00pm 27.9 NE 12 14 1012.1 - 0.0 - - - - - - -
22/02:30pm 27.6 NE 11 13 1012.3 - 0.0 - - - - - - -
22/02:00pm 28.5 NE 11 13 1012.6 - 0.0 - - - - - - -
22/01:30pm 27.9 NE 10 13 1013.1 - 0.0 - - - - - - -
22/01:00pm 28.6 NE 11 13 1013.4 - 0.0 - - - - - - -
22/12:30pm 27.3 NE 11 14 1013.8 - 0.0 - - - - - - -
22/12:00pm 28.0 NE 10 13 1014.0 - 0.0 - - - - - - -
22/11:30am 27.9 NE 10 12 1014.2 - 0.0 - - - - - - -
22/11:00am 27.8 NE 9 11 1014.5 - 0.0 - - - - - - -
22/10:30am 27.8 NNE 9 10 1014.8 - 0.0 - - - - - - -
22/10:00am 27.7 NE 9 10 1014.8 - 0.0 - - - - - - -
22/09:30am 27.5 NE 9 11 1014.9 - 0.0 - - - - - - -
22/09:00am 27.5 NE 11 13 1014.7 - 0.0 - - - - - - -
22/08:30am 27.3 NE 11 14 1014.7 - 0.0 - - - - - - -
22/08:00am 26.7 NE 10 13 1014.5 - 0.0 - - - - - - -
22/07:30am 26.5 NE 10 11 1014.3 - 0.0 - - - - - - -
22/07:00am 26.4 NNE 11 13 1014.0 - 0.0 - - - - - - -

Other Formats:

Comma delimited format used in spreadsheet applications
http://www.bom.gov.au/fwo/IDQ60701/IDQ60701.95296.axf

JavaScript Object Notation format (JSON) in row-major order
http://www.bom.gov.au/fwo/IDQ60701/IDQ60701.95296.json